createdAt,value
2022-09-06T00:01:26.139Z,15.44
2022-09-06T00:03:27.781Z,15.43
2022-09-06T00:05:30.308Z,15.44
2022-09-06T00:07:33.212Z,15.40
2022-09-06T00:09:34.964Z,15.37
2022-09-06T00:11:36.781Z,15.31
2022-09-06T00:13:38.648Z,15.31
2022-09-06T00:15:42.695Z,15.33
2022-09-06T00:17:44.216Z,15.30
2022-09-06T00:19:45.770Z,15.31
2022-09-06T00:21:47.281Z,15.29
2022-09-06T00:23:50.734Z,15.20
2022-09-06T00:25:52.362Z,15.21
2022-09-06T00:27:55.382Z,15.18
2022-09-06T00:29:56.921Z,15.12
2022-09-06T00:31:58.814Z,15.08
2022-09-06T00:34:00.301Z,15.09
2022-09-06T00:36:02.424Z,15.04
2022-09-06T00:38:04.150Z,15.02
2022-09-06T00:40:08.729Z,15.00
2022-09-06T00:42:19.942Z,14.94
2022-09-06T00:44:21.521Z,14.91
2022-09-06T00:46:25.473Z,14.87
2022-09-06T00:48:27.946Z,14.83
2022-09-06T00:50:29.947Z,14.79
2022-09-06T00:52:33.695Z,14.76
2022-09-06T00:54:39.095Z,14.72
2022-09-06T00:56:44.833Z,14.64
2022-09-06T00:58:49.914Z,14.61
2022-09-06T01:00:53.169Z,14.59
2022-09-06T01:02:54.878Z,14.56
2022-09-06T01:04:56.962Z,14.52
2022-09-06T01:07:05.712Z,14.47
2022-09-06T01:09:16.202Z,14.46
2022-09-06T01:11:39.888Z,14.37
2022-09-06T01:13:53.854Z,14.29
2022-09-06T01:16:00.635Z,14.30
2022-09-06T01:18:19.647Z,14.22
2022-09-06T01:20:51.216Z,14.19
2022-09-06T01:23:15.691Z,14.12
2022-09-06T01:25:36.618Z,14.03
2022-09-06T01:28:09.067Z,14.02
2022-09-06T01:30:13.173Z,14.01
2022-09-06T01:32:20.513Z,13.98
2022-09-06T01:34:28.809Z,13.97
2022-09-06T01:36:45.790Z,13.93
2022-09-06T01:38:56.114Z,13.92
2022-09-06T01:40:57.778Z,13.92
2022-09-06T01:42:59.391Z,13.88
2022-09-06T01:45:08.213Z,13.89
2022-09-06T01:47:19.969Z,13.85
2022-09-06T01:49:35.444Z,13.84
2022-09-06T01:51:48.817Z,13.85
2022-09-06T01:54:06.274Z,13.84
2022-09-06T01:56:14.416Z,13.86
2022-09-06T01:58:34.968Z,13.86
2022-09-06T02:00:44.864Z,13.83
2022-09-06T02:02:56.895Z,13.85
2022-09-06T02:05:06.545Z,13.89
2022-09-06T02:07:15.447Z,13.89
2022-09-06T02:09:21.846Z,13.89
2022-09-06T02:11:27.189Z,13.94
2022-09-06T02:13:32.315Z,13.95
2022-09-06T02:15:36.984Z,13.93
2022-09-06T02:17:45.037Z,13.92
2022-09-06T02:19:52.022Z,13.96
2022-09-06T02:21:57.054Z,13.98
2022-09-06T02:24:04.878Z,13.98
2022-09-06T02:26:11.510Z,14.01
2022-09-06T02:28:13.059Z,13.95
2022-09-06T02:30:14.676Z,14.01
2022-09-06T02:32:19.911Z,14.00
2022-09-06T02:34:23.185Z,14.01
2022-09-06T02:36:25.526Z,13.98
2022-09-06T02:38:27.447Z,13.98
2022-09-06T02:40:29.142Z,13.97
2022-09-06T02:42:30.965Z,13.91
2022-09-06T02:44:32.480Z,13.93
2022-09-06T02:46:34.309Z,13.90
2022-09-06T02:48:35.868Z,13.86
2022-09-06T02:50:38.824Z,13.85
2022-09-06T02:52:40.363Z,13.82
2022-09-06T02:54:43.848Z,13.79
2022-09-06T02:56:47.996Z,13.79
2022-09-06T02:58:53.425Z,13.80
2022-09-06T03:00:54.966Z,13.76
2022-09-06T03:02:56.860Z,13.73
2022-09-06T03:04:58.379Z,13.74
2022-09-06T03:07:01.415Z,13.71
2022-09-06T03:09:02.997Z,13.74
2022-09-06T03:11:04.765Z,13.73
2022-09-06T03:13:06.250Z,13.74
2022-09-06T03:15:08.950Z,13.72
2022-09-06T03:17:10.478Z,13.67
2022-09-06T03:19:14.882Z,13.69
2022-09-06T03:21:16.402Z,13.67
2022-09-06T03:23:20.495Z,13.66
2022-09-06T03:25:22.002Z,13.66
2022-09-06T03:27:23.722Z,13.63
2022-09-06T03:29:25.297Z,13.60
2022-09-06T03:31:26.790Z,13.57
2022-09-06T03:33:30.894Z,13.56
2022-09-06T03:35:32.412Z,13.52
2022-09-06T03:37:35.944Z,13.48
2022-09-06T03:39:39.141Z,13.43
2022-09-06T03:41:40.768Z,13.40
2022-09-06T03:43:42.461Z,13.46
2022-09-06T03:45:46.440Z,13.44
2022-09-06T03:47:48.162Z,13.38
2022-09-06T03:49:49.652Z,13.37
2022-09-06T03:51:51.481Z,13.37
2022-09-06T03:53:53.112Z,13.34
2022-09-06T03:55:57.366Z,13.35
2022-09-06T03:57:58.848Z,13.30
2022-09-06T04:00:00.411Z,13.27
2022-09-06T04:02:02.079Z,13.23
2022-09-06T04:04:03.647Z,13.20
2022-09-06T04:06:08.970Z,13.18
2022-09-06T04:08:10.454Z,13.17
2022-09-06T04:10:12.146Z,13.18
2022-09-06T04:12:15.099Z,13.17
2022-09-06T04:14:16.647Z,13.12
2022-09-06T04:16:18.184Z,13.13
2022-09-06T04:18:20.435Z,13.11
2022-09-06T04:20:22.376Z,13.10
2022-09-06T04:22:23.893Z,13.03
2022-09-06T04:24:27.499Z,13.06
2022-09-06T04:26:29.001Z,13.04
2022-09-06T04:28:31.899Z,13.06
2022-09-06T04:30:33.414Z,13.09
2022-09-06T04:32:34.909Z,13.09
2022-09-06T04:34:36.436Z,13.07
2022-09-06T04:36:37.968Z,13.01
2022-09-06T04:38:41.678Z,12.98
2022-09-06T04:40:43.417Z,13.02
2022-09-06T04:42:44.967Z,12.96
2022-09-06T04:44:47.982Z,12.95
2022-09-06T04:46:49.618Z,12.97
2022-09-06T04:48:52.432Z,12.94
2022-09-06T04:50:54.251Z,12.96
2022-09-06T04:52:55.739Z,12.96
2022-09-06T04:54:57.318Z,12.99
2022-09-06T04:56:58.791Z,13.01
2022-09-06T04:59:00.482Z,13.19
2022-09-06T05:01:03.514Z,13.25
2022-09-06T05:03:05.100Z,13.44
2022-09-06T05:05:07.169Z,13.38
2022-09-06T05:07:11.859Z,13.41
2022-09-06T05:09:13.346Z,13.43
2022-09-06T05:11:15.485Z,13.58
2022-09-06T05:13:17.013Z,13.60
2022-09-06T05:15:19.395Z,13.71
2022-09-06T05:17:22.345Z,13.71
2022-09-06T05:19:23.887Z,13.73
2022-09-06T05:21:25.393Z,13.79
2022-09-06T05:23:27.705Z,13.86
2022-09-06T05:25:29.243Z,13.78
2022-09-06T05:27:30.743Z,13.85
2022-09-06T05:29:32.212Z,14.01
2022-09-06T05:31:35.136Z,14.15
2022-09-06T05:33:38.391Z,14.35
2022-09-06T05:35:40.382Z,14.39
2022-09-06T05:37:41.935Z,14.45
2022-09-06T05:39:43.647Z,14.51
2022-09-06T05:41:45.180Z,14.65
2022-09-06T05:43:46.793Z,14.79
2022-09-06T05:45:48.414Z,14.70
2022-09-06T05:47:50.104Z,14.61
2022-09-06T05:49:53.752Z,14.67
2022-09-06T05:51:55.496Z,14.64
2022-09-06T05:53:57.089Z,14.61
2022-09-06T05:55:59.008Z,14.58
2022-09-06T05:58:00.505Z,14.54
2022-09-06T06:00:02.512Z,14.46
2022-09-06T06:02:07.190Z,14.45
2022-09-06T06:04:09.028Z,14.46
2022-09-06T06:06:12.047Z,14.51
2022-09-06T06:08:13.533Z,14.51
2022-09-06T06:10:15.416Z,14.46
2022-09-06T06:12:16.957Z,14.46
2022-09-06T06:14:18.596Z,14.46
2022-09-06T06:16:22.168Z,14.52
2022-09-06T06:18:23.805Z,14.56
2022-09-06T06:20:25.316Z,14.55
2022-09-06T06:22:28.554Z,14.64
2022-09-06T06:24:30.119Z,14.60
2022-09-06T06:26:34.715Z,14.60
2022-09-06T06:28:36.882Z,14.55
2022-09-06T06:30:38.371Z,14.67
2022-09-06T06:32:40.159Z,14.81
2022-09-06T06:34:41.661Z,14.81
2022-09-06T06:36:43.331Z,14.83
2022-09-06T06:38:46.626Z,14.89
2022-09-06T06:40:48.243Z,14.98
2022-09-06T06:42:49.716Z,15.06
2022-09-06T06:44:51.830Z,15.29
2022-09-06T06:46:53.356Z,15.49
2022-09-06T06:48:55.679Z,15.45
2022-09-06T06:50:57.261Z,15.28
2022-09-06T06:52:58.745Z,15.42
2022-09-06T06:55:02.351Z,15.43
2022-09-06T06:57:04.077Z,15.52
2022-09-06T06:59:08.675Z,15.62
2022-09-06T07:01:10.365Z,15.65
2022-09-06T07:03:13.063Z,15.67
2022-09-06T07:07:41.717Z,15.95
2022-09-06T07:12:07.026Z,16.11
2022-09-06T07:14:11.090Z,16.17
2022-09-06T07:16:14.710Z,16.02
2022-09-06T07:18:16.711Z,15.92
2022-09-06T07:20:18.957Z,16.10
2022-09-06T07:22:20.586Z,16.29
2022-09-06T07:24:29.423Z,16.44
2022-09-06T07:26:31.260Z,16.58
2022-09-06T07:28:35.330Z,16.65
2022-09-06T07:30:37.502Z,16.65
2022-09-06T07:32:39.045Z,16.59
2022-09-06T07:34:40.632Z,16.51
2022-09-06T07:36:42.139Z,16.51
2022-09-06T07:38:48.552Z,16.38
2022-09-06T07:40:53.774Z,16.45
2022-09-06T07:43:04.123Z,16.43
2022-09-06T07:45:10.803Z,16.38
2022-09-06T07:49:36.799Z,16.65
2022-09-06T07:51:40.661Z,16.72
2022-09-06T07:53:44.339Z,16.53
2022-09-06T07:55:45.873Z,16.59
2022-09-06T07:57:50.309Z,16.45
2022-09-06T07:59:51.817Z,16.51
2022-09-06T08:01:57.401Z,16.64
2022-09-06T08:04:00.902Z,16.76
2022-09-06T08:06:10.305Z,16.63
2022-09-06T08:10:35.626Z,16.97
2022-09-06T08:12:37.194Z,16.91
2022-09-06T08:14:38.786Z,16.73
2022-09-06T08:16:40.351Z,16.79
2022-09-06T08:18:43.562Z,16.92
2022-09-06T08:20:45.043Z,16.83
2022-09-06T08:22:46.509Z,16.96
2022-09-06T08:24:48.078Z,17.05
2022-09-06T08:26:49.555Z,17.11
2022-09-06T08:28:56.166Z,17.15
2022-09-06T08:31:05.611Z,17.31
2022-09-06T08:33:12.884Z,17.26
2022-09-06T08:35:21.713Z,17.28
2022-09-06T08:37:25.629Z,17.38
2022-09-06T08:39:27.172Z,17.33
2022-09-06T08:41:33.108Z,17.59
2022-09-06T08:43:38.385Z,17.70
2022-09-06T08:45:43.308Z,17.71
2022-09-06T08:47:45.090Z,17.80
2022-09-06T08:49:48.523Z,17.77
2022-09-06T08:52:02.827Z,17.79
2022-09-06T08:54:14.762Z,17.94
2022-09-06T08:56:21.522Z,17.95
2022-09-06T08:58:40.372Z,17.94
2022-09-06T09:00:48.660Z,18.02
2022-09-06T09:02:54.580Z,18.06
2022-09-06T09:05:04.144Z,18.04
2022-09-06T09:07:33.497Z,17.91
2022-09-06T09:09:35.860Z,17.90
2022-09-06T09:11:43.828Z,18.05
2022-09-06T09:13:56.216Z,18.27
2022-09-06T09:16:02.382Z,18.36
2022-09-06T09:18:04.059Z,18.39
2022-09-06T09:20:06.145Z,18.44
2022-09-06T09:22:09.871Z,18.49
2022-09-06T09:24:12.954Z,18.47
2022-09-06T09:26:18.204Z,18.54
2022-09-06T09:28:23.716Z,18.52
2022-09-06T09:32:50.847Z,18.61
2022-09-06T09:34:52.347Z,18.80
2022-09-06T09:39:39.989Z,19.04
2022-09-06T09:41:50.540Z,19.13
2022-09-06T09:44:06.539Z,19.10
2022-09-06T09:46:14.587Z,19.11
2022-09-06T09:48:25.612Z,19.11
2022-09-06T09:50:29.891Z,19.07
2022-09-06T09:52:46.174Z,19.19
2022-09-06T09:54:49.828Z,19.25
2022-09-06T09:56:52.194Z,19.33
2022-09-06T09:58:58.184Z,19.27
2022-09-06T10:01:13.272Z,19.43
2022-09-06T10:03:17.432Z,19.61
2022-09-06T10:05:20.756Z,19.67
2022-09-06T10:07:26.269Z,19.67
2022-09-06T10:09:36.018Z,19.76
2022-09-06T10:11:50.464Z,19.57
2022-09-06T10:14:10.431Z,19.47
2022-09-06T10:16:41.745Z,19.49
2022-09-06T10:18:44.442Z,19.51
2022-09-06T10:20:55.044Z,19.51
2022-09-06T10:23:02.396Z,19.57
2022-09-06T10:25:24.821Z,19.56
2022-09-06T10:27:30.202Z,19.59
2022-09-06T10:29:40.934Z,19.56
2022-09-06T10:31:59.007Z,19.53
2022-09-06T10:34:14.577Z,19.57
2022-09-06T10:36:21.581Z,19.50
2022-09-06T10:38:52.474Z,19.54
2022-09-06T10:41:14.930Z,19.51
2022-09-06T10:43:20.661Z,19.56
2022-09-06T10:45:28.232Z,19.74
2022-09-06T10:47:38.537Z,19.86
2022-09-06T10:49:46.212Z,19.87
2022-09-06T10:51:54.204Z,19.76
2022-09-06T10:54:01.952Z,19.94
2022-09-06T10:56:08.379Z,20.11
2022-09-06T11:00:21.801Z,20.22
2022-09-06T11:02:38.452Z,20.38
2022-09-06T11:07:15.921Z,20.65
2022-09-06T11:09:25.826Z,20.88
2022-09-06T11:11:42.916Z,20.98
2022-09-06T11:13:44.572Z,21.02
2022-09-06T11:15:50.133Z,20.95
2022-09-06T11:18:04.096Z,20.94
2022-09-06T11:20:11.616Z,20.81
2022-09-06T11:22:24.198Z,20.65
2022-09-06T11:24:40.859Z,20.75
2022-09-06T11:27:04.776Z,20.69
2022-09-06T11:29:09.202Z,20.74
2022-09-06T11:33:47.070Z,20.69
2022-09-06T11:35:52.453Z,20.55
2022-09-06T11:37:59.755Z,20.49
2022-09-06T11:40:28.717Z,20.35
2022-09-06T11:43:12.566Z,20.26
2022-09-06T11:45:20.643Z,20.28
2022-09-06T11:47:49.782Z,20.36
2022-09-06T11:50:00.296Z,20.36
2022-09-06T11:52:57.773Z,20.44
2022-09-06T11:54:59.497Z,20.55
2022-09-06T11:57:11.081Z,20.56
2022-09-06T11:59:33.991Z,20.77
2022-09-06T12:01:37.882Z,20.92
2022-09-06T12:06:17.082Z,20.84
2022-09-06T12:08:32.739Z,20.82
2022-09-06T12:10:59.396Z,20.82
2022-09-06T12:13:01.178Z,20.80
2022-09-06T12:15:28.963Z,20.80
2022-09-06T12:17:47.001Z,20.79
2022-09-06T12:19:50.894Z,20.91
2022-09-06T12:21:52.484Z,21.04
2022-09-06T12:23:54.119Z,20.95
2022-09-06T12:25:57.314Z,21.01
2022-09-06T12:28:01.225Z,21.00
2022-09-06T12:30:08.435Z,21.03
2022-09-06T12:32:21.406Z,20.97
2022-09-06T12:34:25.568Z,20.96
2022-09-06T12:36:30.237Z,20.99
2022-09-06T12:38:31.853Z,21.08
2022-09-06T12:40:37.707Z,21.27
2022-09-06T12:42:39.220Z,21.48
2022-09-06T12:44:46.488Z,21.60
2022-09-06T12:46:52.455Z,21.72
2022-09-06T12:49:03.553Z,21.82
2022-09-06T12:51:07.670Z,21.88
2022-09-06T12:53:23.402Z,22.12
2022-09-06T12:55:28.075Z,22.20
2022-09-06T12:57:32.403Z,22.34
2022-09-06T12:59:49.377Z,22.43
2022-09-06T13:01:56.779Z,22.53
2022-09-06T13:04:03.100Z,22.46
2022-09-06T13:06:07.764Z,22.38
2022-09-06T13:08:14.510Z,22.17
2022-09-06T13:10:19.212Z,22.11
2022-09-06T13:12:25.494Z,22.11
2022-09-06T13:14:29.477Z,21.99
2022-09-06T13:16:44.650Z,22.08
2022-09-06T13:18:46.296Z,22.05
2022-09-06T13:20:57.899Z,21.96
2022-09-06T13:23:11.233Z,21.78
2022-09-06T13:25:25.868Z,21.72
2022-09-06T13:27:42.629Z,21.83
2022-09-06T13:29:59.300Z,21.82
2022-09-06T13:32:13.712Z,21.89
2022-09-06T13:34:23.831Z,21.96
2022-09-06T13:36:30.623Z,21.97
2022-09-06T13:38:38.284Z,22.00
2022-09-06T13:41:06.993Z,22.09
2022-09-06T13:43:10.891Z,22.06
2022-09-06T13:45:21.315Z,22.19
2022-09-06T13:47:22.871Z,22.19
2022-09-06T13:49:27.408Z,22.27
2022-09-06T13:51:29.702Z,22.18
2022-09-06T13:53:32.959Z,22.29
2022-09-06T13:55:34.704Z,22.16
2022-09-06T13:57:36.197Z,22.09
2022-09-06T13:59:37.723Z,21.94
2022-09-06T14:01:41.360Z,21.96
2022-09-06T14:03:43.156Z,22.19
2022-09-06T14:05:44.717Z,22.11
2022-09-06T14:07:46.327Z,22.18
2022-09-06T14:09:49.201Z,22.26
2022-09-06T14:11:50.959Z,22.10
2022-09-06T14:13:52.523Z,21.95
2022-09-06T14:15:54.253Z,21.68
2022-09-06T14:17:55.824Z,21.77
2022-09-06T14:19:57.545Z,21.86
2022-09-06T14:21:59.083Z,21.82
2022-09-06T14:24:04.060Z,21.87
2022-09-06T14:26:08.036Z,21.80
2022-09-06T14:28:09.698Z,21.73
2022-09-06T14:30:12.470Z,21.74
2022-09-06T14:32:14.216Z,21.73
2022-09-06T14:34:15.781Z,21.71
2022-09-06T14:36:19.316Z,21.71
2022-09-06T14:38:20.857Z,21.73
2022-09-06T14:40:22.648Z,21.76
2022-09-06T14:42:25.578Z,21.81
2022-09-06T14:44:29.484Z,21.86
2022-09-06T14:46:31.194Z,22.00
2022-09-06T14:48:33.527Z,21.99
2022-09-06T14:50:36.668Z,22.01
2022-09-06T14:52:38.200Z,22.04
2022-09-06T14:54:40.031Z,22.02
2022-09-06T14:56:42.601Z,21.96
2022-09-06T14:58:45.766Z,21.87
2022-09-06T15:00:47.259Z,21.78
2022-09-06T15:02:48.849Z,21.66
2022-09-06T15:04:50.568Z,21.71
2022-09-06T15:07:01.217Z,21.60
2022-09-06T15:09:03.466Z,21.59
2022-09-06T15:11:06.053Z,21.50
2022-09-06T15:13:07.873Z,21.47
2022-09-06T15:15:11.344Z,21.38
2022-09-06T15:17:13.215Z,21.37
2022-09-06T15:19:14.930Z,21.34
2022-09-06T15:21:17.521Z,21.38
2022-09-06T15:23:35.403Z,21.48
2022-09-06T15:25:37.076Z,21.52
2022-09-06T15:27:38.864Z,21.46
2022-09-06T15:29:43.035Z,21.54
2022-09-06T15:31:47.151Z,21.58
2022-09-06T15:33:50.914Z,21.53
2022-09-06T15:35:54.141Z,21.50
2022-09-06T15:37:55.897Z,21.39
2022-09-06T15:39:57.511Z,21.42
2022-09-06T15:41:59.152Z,21.41
2022-09-06T15:44:05.486Z,21.42
2022-09-06T15:46:07.312Z,21.44
2022-09-06T15:48:10.321Z,21.37
2022-09-06T15:50:11.872Z,21.37
2022-09-06T15:52:13.449Z,21.30
2022-09-06T15:54:16.931Z,21.32
2022-09-06T15:56:18.734Z,21.26
2022-09-06T15:58:20.327Z,21.26
2022-09-06T16:00:21.976Z,21.20
2022-09-06T16:02:23.481Z,21.19
2022-09-06T16:04:26.592Z,21.16
2022-09-06T16:06:28.882Z,21.18
2022-09-06T16:08:30.769Z,21.20
2022-09-06T16:10:32.307Z,21.22
2022-09-06T16:12:34.984Z,21.16
2022-09-06T16:14:37.406Z,21.13
2022-09-06T16:16:39.561Z,21.12
2022-09-06T16:18:43.077Z,21.06
2022-09-06T16:20:45.939Z,21.02
2022-09-06T16:22:49.376Z,21.01
2022-09-06T16:24:50.907Z,20.98
2022-09-06T16:26:52.456Z,21.03
2022-09-06T16:28:54.610Z,20.93
2022-09-06T16:30:56.467Z,20.95
2022-09-06T16:32:58.021Z,20.89
2022-09-06T16:34:59.766Z,20.89
2022-09-06T16:37:02.663Z,20.86
2022-09-06T16:39:05.136Z,20.85
2022-09-06T16:41:12.104Z,20.76
2022-09-06T16:43:13.617Z,20.75
2022-09-06T16:45:15.148Z,20.79
2022-09-06T16:47:16.912Z,20.79
2022-09-06T16:49:18.793Z,20.82
2022-09-06T16:51:21.905Z,20.79
2022-09-06T16:53:24.780Z,20.74
2022-09-06T16:55:26.548Z,20.72
2022-09-06T16:57:28.062Z,20.67
2022-09-06T16:59:29.645Z,20.67
2022-09-06T17:01:32.321Z,20.59
2022-09-06T17:03:34.955Z,20.63
2022-09-06T17:05:36.615Z,20.63
2022-09-06T17:07:38.351Z,20.51
2022-09-06T17:09:41.291Z,20.57
2022-09-06T17:11:43.133Z,20.54
2022-09-06T17:13:47.185Z,20.44
2022-09-06T17:15:54.973Z,20.42
2022-09-06T17:17:56.662Z,20.41
2022-09-06T17:19:58.231Z,20.39
2022-09-06T17:21:59.797Z,20.36
2022-09-06T17:24:01.855Z,20.31
2022-09-06T17:26:06.012Z,20.33
2022-09-06T17:28:07.571Z,20.30
2022-09-06T17:30:10.467Z,20.26
2022-09-06T17:32:11.965Z,20.21
2022-09-06T17:34:13.782Z,20.25
2022-09-06T17:36:16.925Z,20.22
2022-09-06T17:38:18.493Z,20.18
2022-09-06T17:40:20.282Z,20.15
2022-09-06T17:42:23.207Z,20.10
2022-09-06T17:44:26.239Z,20.10
2022-09-06T17:46:29.063Z,20.10
2022-09-06T17:48:30.950Z,20.07
2022-09-06T17:50:39.168Z,19.99
2022-09-06T17:52:41.017Z,20.01
2022-09-06T17:54:45.559Z,19.99
2022-09-06T17:56:49.619Z,19.96
2022-09-06T17:58:53.407Z,19.99
2022-09-06T18:00:55.039Z,19.92
2022-09-06T18:02:56.584Z,19.91
2022-09-06T18:04:58.181Z,19.96
2022-09-06T18:06:59.838Z,19.87
2022-09-06T18:09:05.790Z,19.84
2022-09-06T18:11:08.607Z,19.86
2022-09-06T18:13:10.210Z,19.81
2022-09-06T18:15:13.224Z,19.78
2022-09-06T18:17:14.768Z,19.78
2022-09-06T18:19:19.789Z,19.78
2022-09-06T18:21:22.700Z,19.79
2022-09-06T18:23:24.615Z,19.75
2022-09-06T18:25:26.162Z,19.73
2022-09-06T18:27:32.234Z,19.69
2022-09-06T18:29:33.753Z,19.68
2022-09-06T18:31:36.773Z,19.71
2022-09-06T18:33:39.173Z,19.72
2022-09-06T18:35:40.910Z,19.66
2022-09-06T18:37:42.503Z,19.58
2022-09-06T18:39:45.089Z,19.56
2022-09-06T18:41:46.653Z,19.61
2022-09-06T18:43:48.406Z,19.55
2022-09-06T18:45:50.069Z,19.48
2022-09-06T18:47:53.020Z,19.47
2022-09-06T18:49:57.623Z,19.49
2022-09-06T18:51:59.797Z,19.42
2022-09-06T18:54:01.669Z,19.46
2022-09-06T18:56:03.501Z,19.41
2022-09-06T18:58:05.028Z,19.39
2022-09-06T19:00:07.813Z,19.35
2022-09-06T19:02:09.432Z,19.34
2022-09-06T19:04:12.992Z,19.35
2022-09-06T19:06:16.535Z,19.28
2022-09-06T19:08:18.129Z,19.31
2022-09-06T19:10:19.825Z,19.27
2022-09-06T19:12:21.398Z,19.29
2022-09-06T19:14:22.974Z,19.25
2022-09-06T19:16:25.936Z,19.23
2022-09-06T19:18:28.668Z,19.24
2022-09-06T19:20:31.618Z,19.23
2022-09-06T19:22:33.221Z,19.22
2022-09-06T19:24:34.762Z,19.16
2022-09-06T19:26:38.135Z,19.17
2022-09-06T19:28:40.025Z,19.14
2022-09-06T19:30:41.608Z,19.12
2022-09-06T19:32:43.258Z,19.08
2022-09-06T19:34:44.785Z,19.07
2022-09-06T19:36:47.646Z,19.05
2022-09-06T19:39:02.954Z,19.03
2022-09-06T19:41:06.929Z,19.05
2022-09-06T19:43:08.486Z,19.00
2022-09-06T19:45:10.298Z,18.98
2022-09-06T19:47:11.940Z,18.98
2022-09-06T19:49:14.703Z,18.91
2022-09-06T19:51:20.078Z,18.91
2022-09-06T19:53:22.933Z,18.89
2022-09-06T19:55:24.564Z,18.85
2022-09-06T19:57:26.090Z,18.87
2022-09-06T19:59:27.677Z,18.85
2022-09-06T20:01:30.581Z,18.85
2022-09-06T20:03:32.321Z,18.81
2022-09-06T20:05:33.971Z,18.73
2022-09-06T20:07:35.559Z,18.77
2022-09-06T20:09:38.568Z,18.73
2022-09-06T20:11:41.462Z,18.67
2022-09-06T20:13:43.019Z,18.66
2022-09-06T20:15:44.636Z,18.65
2022-09-06T20:17:46.150Z,18.65
2022-09-06T20:19:47.691Z,18.60
2022-09-06T20:21:49.263Z,18.58
2022-09-06T20:23:52.013Z,18.57
2022-09-06T20:26:00.178Z,18.59
2022-09-06T20:28:02.239Z,18.57
2022-09-06T20:30:04.341Z,18.57
2022-09-06T20:32:06.115Z,18.43
2022-09-06T20:34:07.863Z,18.52
2022-09-06T20:36:10.958Z,18.46
2022-09-06T20:38:12.475Z,18.41
2022-09-06T20:40:14.278Z,18.40
2022-09-06T20:42:17.195Z,18.38
2022-09-06T20:44:18.715Z,18.38
2022-09-06T20:46:22.714Z,18.36
2022-09-06T20:48:24.368Z,18.34
2022-09-06T20:50:25.951Z,18.33
2022-09-06T20:52:27.515Z,18.29
2022-09-06T20:54:29.054Z,18.25
2022-09-06T20:56:32.560Z,18.25
2022-09-06T20:58:35.723Z,18.24
2022-09-06T21:00:39.472Z,18.20
2022-09-06T21:02:41.208Z,18.17
2022-09-06T21:04:42.735Z,18.14
2022-09-06T21:06:44.791Z,18.18
2022-09-06T21:08:46.516Z,18.11
2022-09-06T21:10:48.083Z,18.10
2022-09-06T21:12:50.027Z,18.05
2022-09-06T21:14:52.887Z,18.01
2022-09-06T21:16:54.518Z,18.01
2022-09-06T21:18:58.191Z,17.93
2022-09-06T21:21:01.355Z,17.93
2022-09-06T21:23:03.756Z,17.88
2022-09-06T21:25:06.108Z,17.89
2022-09-06T21:27:07.612Z,17.86
2022-09-06T21:29:09.197Z,17.80
2022-09-06T21:31:13.578Z,17.77
2022-09-06T21:33:15.265Z,17.73
2022-09-06T21:35:17.020Z,17.73
2022-09-06T21:37:18.718Z,17.71
2022-09-06T21:39:20.214Z,17.68
2022-09-06T21:41:22.942Z,17.73
2022-09-06T21:43:24.535Z,17.66
2022-09-06T21:45:26.064Z,17.64
2022-09-06T21:47:30.617Z,17.63
2022-09-06T21:49:32.162Z,17.66
2022-09-06T21:51:34.131Z,17.63
2022-09-06T21:53:36.906Z,17.68
2022-09-06T21:55:38.402Z,17.66
2022-09-06T21:57:39.898Z,17.61
2022-09-06T21:59:41.428Z,17.63
2022-09-06T22:01:45.173Z,17.64
2022-09-06T22:03:48.668Z,17.62
2022-09-06T22:05:50.174Z,17.62
2022-09-06T22:07:51.699Z,17.59
2022-09-06T22:09:53.231Z,17.60
2022-09-06T22:11:54.745Z,17.59
2022-09-06T22:13:58.598Z,17.54
2022-09-06T22:16:07.060Z,17.54
2022-09-06T22:18:09.669Z,17.52
2022-09-06T22:20:12.603Z,17.49
2022-09-06T22:22:14.118Z,17.48
2022-09-06T22:24:15.894Z,17.45
2022-09-06T22:26:18.277Z,17.34
2022-09-06T22:28:19.783Z,17.40
2022-09-06T22:30:25.488Z,17.47
2022-09-06T22:32:27.274Z,17.45
2022-09-06T22:34:28.865Z,17.41
2022-09-06T22:36:32.243Z,17.38
2022-09-06T22:38:33.941Z,17.37
2022-09-06T22:40:35.520Z,17.34
2022-09-06T22:42:37.548Z,17.35
2022-09-06T22:44:39.054Z,17.31
2022-09-06T22:46:40.650Z,17.29
2022-09-06T22:48:42.236Z,17.31
2022-09-06T22:50:44.110Z,17.28
2022-09-06T22:52:46.986Z,17.26
2022-09-06T22:54:48.513Z,17.27
2022-09-06T22:56:50.170Z,17.24
2022-09-06T22:58:51.700Z,17.20
2022-09-06T23:00:54.083Z,17.13
2022-09-06T23:02:56.006Z,17.17
2022-09-06T23:04:57.581Z,17.18
2022-09-06T23:06:59.143Z,17.12
2022-09-06T23:09:02.536Z,17.10
2022-09-06T23:11:05.546Z,17.07
2022-09-06T23:13:07.722Z,17.15
2022-09-06T23:15:09.968Z,17.10
2022-09-06T23:17:11.472Z,17.08
2022-09-06T23:19:13.200Z,17.01
2022-09-06T23:21:16.742Z,17.01
2022-09-06T23:23:18.226Z,17.00
2022-09-06T23:25:21.096Z,16.97
2022-09-06T23:27:22.710Z,16.93
2022-09-06T23:29:24.424Z,16.94
2022-09-06T23:31:27.802Z,16.94
2022-09-06T23:33:29.711Z,16.91
2022-09-06T23:35:31.284Z,16.92
2022-09-06T23:37:32.860Z,16.90
2022-09-06T23:39:34.436Z,16.89
2022-09-06T23:41:37.536Z,16.88
2022-09-06T23:43:40.698Z,16.93
2022-09-06T23:45:42.208Z,16.93
2022-09-06T23:47:43.693Z,16.93
2022-09-06T23:49:45.303Z,16.95
2022-09-06T23:51:46.815Z,16.94
2022-09-06T23:53:48.333Z,16.95
2022-09-06T23:55:50.015Z,16.94
2022-09-06T23:57:52.911Z,16.92
2022-09-06T23:59:54.413Z,16.86
